sensor_id;sensor_type;location;lat;lon;timestamp;temperature;humidity
24412;DHT22;12544;46.760;15.942;2023-12-07T00:01:46;0.20;99.90
24412;DHT22;12544;46.760;15.942;2023-12-07T00:04:11;0.20;99.90
24412;DHT22;12544;46.760;15.942;2023-12-07T00:06:37;0.20;99.90
24412;DHT22;12544;46.760;15.942;2023-12-07T00:09:02;0.30;99.90
24412;DHT22;12544;46.760;15.942;2023-12-07T00:11:28;0.20;99.90
24412;DHT22;12544;46.760;15.942;2023-12-07T00:13:53;0.20;99.90
24412;DHT22;12544;46.760;15.942;2023-12-07T00:16:19;0.20;99.90
24412;DHT22;12544;46.760;15.942;2023-12-07T00:18:45;0.20;99.90
24412;DHT22;12544;46.760;15.942;2023-12-07T00:21:10;0.20;99.90
24412;DHT22;12544;46.760;15.942;2023-12-07T00:23:36;0.10;99.90
24412;DHT22;12544;46.760;15.942;2023-12-07T00:26:04;0.10;99.90
24412;DHT22;12544;46.760;15.942;2023-12-07T00:28:30;0.10;99.90
24412;DHT22;12544;46.760;15.942;2023-12-07T00:30:56;0.20;99.90
24412;DHT22;12544;46.760;15.942;2023-12-07T00:33:22;0.10;99.90
24412;DHT22;12544;46.760;15.942;2023-12-07T00:35:48;0.00;99.90
24412;DHT22;12544;46.760;15.942;2023-12-07T00:41:36;-0.10;99.90
24412;DHT22;12544;46.760;15.942;2023-12-07T00:44:01;-0.10;99.90
24412;DHT22;12544;46.760;15.942;2023-12-07T00:46:41;-0.10;99.90
24412;DHT22;12544;46.760;15.942;2023-12-07T00:49:07;-0.10;99.90
24412;DHT22;12544;46.760;15.942;2023-12-07T00:51:32;-0.20;99.90
24412;DHT22;12544;46.760;15.942;2023-12-07T00:53:58;-0.20;99.90
24412;DHT22;12544;46.760;15.942;2023-12-07T00:56:24;-0.20;99.90
24412;DHT22;12544;46.760;15.942;2023-12-07T00:58:50;-0.20;99.90
24412;DHT22;12544;46.760;15.942;2023-12-07T01:01:17;-0.20;99.90
24412;DHT22;12544;46.760;15.942;2023-12-07T01:03:43;-0.20;99.90
24412;DHT22;12544;46.760;15.942;2023-12-07T01:06:09;-0.20;99.90
24412;DHT22;12544;46.760;15.942;2023-12-07T01:08:37;-0.20;99.90
24412;DHT22;12544;46.760;15.942;2023-12-07T01:11:03;-0.10;99.90
24412;DHT22;12544;46.760;15.942;2023-12-07T01:13:29;-0.20;99.90
24412;DHT22;12544;46.760;15.942;2023-12-07T01:15:55;-0.20;99.90
24412;DHT22;12544;46.760;15.942;2023-12-07T01:18:21;-0.20;99.90
24412;DHT22;12544;46.760;15.942;2023-12-07T01:20:47;-0.10;99.90
24412;DHT22;12544;46.760;15.942;2023-12-07T01:23:13;-0.20;99.90
24412;DHT22;12544;46.760;15.942;2023-12-07T01:29:01;-0.20;99.90
24412;DHT22;12544;46.760;15.942;2023-12-07T01:31:28;-0.20;99.90
24412;DHT22;12544;46.760;15.942;2023-12-07T01:33:54;-0.20;99.90
24412;DHT22;12544;46.760;15.942;2023-12-07T01:36:19;-0.30;99.90
24412;DHT22;12544;46.760;15.942;2023-12-07T01:38:45;-0.30;99.90
24412;DHT22;12544;46.760;15.942;2023-12-07T01:44:34;-0.30;99.90
24412;DHT22;12544;46.760;15.942;2023-12-07T01:46:59;-0.40;99.90
24412;DHT22;12544;46.760;15.942;2023-12-07T01:49:26;-0.50;99.90
24412;DHT22;12544;46.760;15.942;2023-12-07T01:51:51;-0.50;99.90
24412;DHT22;12544;46.760;15.942;2023-12-07T01:54:17;-0.60;99.90
24412;DHT22;12544;46.760;15.942;2023-12-07T01:56:44;-0.50;99.90
24412;DHT22;12544;46.760;15.942;2023-12-07T01:59:11;-0.50;99.90
24412;DHT22;12544;46.760;15.942;2023-12-07T02:04:58;-0.60;99.90
24412;DHT22;12544;46.760;15.942;2023-12-07T02:07:24;-0.70;99.90
24412;DHT22;12544;46.760;15.942;2023-12-07T02:09:50;-0.70;99.90
24412;DHT22;12544;46.760;15.942;2023-12-07T02:12:15;-0.80;99.90
24412;DHT22;12544;46.760;15.942;2023-12-07T02:14:41;-0.90;99.90
24412;DHT22;12544;46.760;15.942;2023-12-07T02:20:14;-0.90;99.90
24412;DHT22;12544;46.760;15.942;2023-12-07T02:22:52;-0.90;99.90
24412;DHT22;12544;46.760;15.942;2023-12-07T02:25:19;-0.90;99.90
24412;DHT22;12544;46.760;15.942;2023-12-07T02:27:48;-0.90;99.90
24412;DHT22;12544;46.760;15.942;2023-12-07T02:30:15;-1.00;99.90
24412;DHT22;12544;46.760;15.942;2023-12-07T02:32:43;-1.10;99.90
24412;DHT22;12544;46.760;15.942;2023-12-07T02:35:10;-1.10;99.90
24412;DHT22;12544;46.760;15.942;2023-12-07T02:37:45;-1.20;99.90
24412;DHT22;12544;46.760;15.942;2023-12-07T02:43:15;-1.20;99.90
24412;DHT22;12544;46.760;15.942;2023-12-07T02:45:41;-1.30;99.90
24412;DHT22;12544;46.760;15.942;2023-12-07T02:48:07;-1.30;99.90
24412;DHT22;12544;46.760;15.942;2023-12-07T02:50:32;-1.30;99.90
24412;DHT22;12544;46.760;15.942;2023-12-07T02:52:58;-1.40;99.90
24412;DHT22;12544;46.760;15.942;2023-12-07T02:55:24;-1.40;99.90
24412;DHT22;12544;46.760;15.942;2023-12-07T02:57:49;-1.40;99.90
24412;DHT22;12544;46.760;15.942;2023-12-07T03:03:37;-1.30;99.90
24412;DHT22;12544;46.760;15.942;2023-12-07T03:06:04;-1.30;99.90
24412;DHT22;12544;46.760;15.942;2023-12-07T03:08:30;-1.30;99.90
24412;DHT22;12544;46.760;15.942;2023-12-07T03:10:55;-1.40;99.90
24412;DHT22;12544;46.760;15.942;2023-12-07T03:13:21;-1.30;99.90
24412;DHT22;12544;46.760;15.942;2023-12-07T03:15:46;-1.30;99.90
24412;DHT22;12544;46.760;15.942;2023-12-07T03:18:12;-1.30;99.90
24412;DHT22;12544;46.760;15.942;2023-12-07T03:20:38;-1.30;99.90
24412;DHT22;12544;46.760;15.942;2023-12-07T03:26:26;-1.40;99.90
24412;DHT22;12544;46.760;15.942;2023-12-07T03:28:51;-1.40;99.90
24412;DHT22;12544;46.760;15.942;2023-12-07T03:31:17;-1.40;99.90
24412;DHT22;12544;46.760;15.942;2023-12-07T03:33:42;-1.40;99.90
24412;DHT22;12544;46.760;15.942;2023-12-07T03:36:11;-1.30;99.90
24412;DHT22;12544;46.760;15.942;2023-12-07T03:38:36;-1.30;99.90
24412;DHT22;12544;46.760;15.942;2023-12-07T03:41:02;-1.20;99.90
24412;DHT22;12544;46.760;15.942;2023-12-07T03:43:28;-1.10;99.90
24412;DHT22;12544;46.760;15.942;2023-12-07T03:45:53;-1.10;99.90
24412;DHT22;12544;46.760;15.942;2023-12-07T03:48:19;-1.10;99.90
24412;DHT22;12544;46.760;15.942;2023-12-07T03:50:45;-1.10;99.90
24412;DHT22;12544;46.760;15.942;2023-12-07T03:53:10;-1.10;99.90
24412;DHT22;12544;46.760;15.942;2023-12-07T03:55:36;-1.10;99.90
24412;DHT22;12544;46.760;15.942;2023-12-07T03:58:02;-1.10;99.90
24412;DHT22;12544;46.760;15.942;2023-12-07T04:00:28;-1.00;99.90
24412;DHT22;12544;46.760;15.942;2023-12-07T04:02:54;-1.00;99.90
24412;DHT22;12544;46.760;15.942;2023-12-07T04:05:19;-1.00;99.90
24412;DHT22;12544;46.760;15.942;2023-12-07T04:07:45;-0.90;99.90
24412;DHT22;12544;46.760;15.942;2023-12-07T04:10:11;-0.90;99.90
24412;DHT22;12544;46.760;15.942;2023-12-07T04:12:36;-0.90;99.90
24412;DHT22;12544;46.760;15.942;2023-12-07T04:15:02;-0.90;99.90
24412;DHT22;12544;46.760;15.942;2023-12-07T04:17:28;-0.90;99.90
24412;DHT22;12544;46.760;15.942;2023-12-07T04:19:53;-0.90;99.90
24412;DHT22;12544;46.760;15.942;2023-12-07T04:22:19;-0.90;99.90
24412;DHT22;12544;46.760;15.942;2023-12-07T04:24:45;-0.90;99.90
24412;DHT22;12544;46.760;15.942;2023-12-07T04:27:10;-0.90;99.90
24412;DHT22;12544;46.760;15.942;2023-12-07T04:29:36;-1.00;99.90
24412;DHT22;12544;46.760;15.942;2023-12-07T04:32:02;-1.00;99.90
24412;DHT22;12544;46.760;15.942;2023-12-07T04:34:27;-1.10;99.90
24412;DHT22;12544;46.760;15.942;2023-12-07T04:36:53;-1.10;99.90
24412;DHT22;12544;46.760;15.942;2023-12-07T04:39:19;-1.10;99.90
24412;DHT22;12544;46.760;15.942;2023-12-07T04:41:44;-1.10;99.90
24412;DHT22;12544;46.760;15.942;2023-12-07T04:44:10;-1.10;99.90
24412;DHT22;12544;46.760;15.942;2023-12-07T04:46:36;-1.10;99.90
24412;DHT22;12544;46.760;15.942;2023-12-07T04:49:01;-1.10;99.90
24412;DHT22;12544;46.760;15.942;2023-12-07T04:51:27;-1.20;99.90
24412;DHT22;12544;46.760;15.942;2023-12-07T04:53:52;-1.20;99.90
24412;DHT22;12544;46.760;15.942;2023-12-07T04:56:18;-1.20;99.90
24412;DHT22;12544;46.760;15.942;2023-12-07T04:58:44;-1.10;99.90
24412;DHT22;12544;46.760;15.942;2023-12-07T05:01:09;-1.10;99.90
24412;DHT22;12544;46.760;15.942;2023-12-07T05:03:35;-1.10;99.90
24412;DHT22;12544;46.760;15.942;2023-12-07T05:06:00;-1.20;99.90
24412;DHT22;12544;46.760;15.942;2023-12-07T05:08:26;-1.30;99.90
24412;DHT22;12544;46.760;15.942;2023-12-07T05:10:52;-1.40;99.90
24412;DHT22;12544;46.760;15.942;2023-12-07T05:13:18;-1.30;99.90
24412;DHT22;12544;46.760;15.942;2023-12-07T05:15:44;-1.40;99.90
24412;DHT22;12544;46.760;15.942;2023-12-07T05:18:12;-1.50;99.90
24412;DHT22;12544;46.760;15.942;2023-12-07T05:20:37;-1.50;99.90
24412;DHT22;12544;46.760;15.942;2023-12-07T05:23:05;-1.50;99.90
24412;DHT22;12544;46.760;15.942;2023-12-07T05:25:31;-1.60;99.90
24412;DHT22;12544;46.760;15.942;2023-12-07T05:27:58;-1.70;99.90
24412;DHT22;12544;46.760;15.942;2023-12-07T05:30:23;-1.60;99.90
24412;DHT22;12544;46.760;15.942;2023-12-07T05:32:49;-1.50;99.90
24412;DHT22;12544;46.760;15.942;2023-12-07T05:35:16;-1.40;99.90
24412;DHT22;12544;46.760;15.942;2023-12-07T05:37:41;-1.30;99.90
24412;DHT22;12544;46.760;15.942;2023-12-07T05:40:07;-1.10;99.90
24412;DHT22;12544;46.760;15.942;2023-12-07T05:42:34;-1.00;99.90
24412;DHT22;12544;46.760;15.942;2023-12-07T05:45:00;-1.10;99.90
24412;DHT22;12544;46.760;15.942;2023-12-07T05:47:26;-1.40;99.90
24412;DHT22;12544;46.760;15.942;2023-12-07T05:49:52;-1.50;99.90
24412;DHT22;12544;46.760;15.942;2023-12-07T05:52:18;-1.60;99.90
24412;DHT22;12544;46.760;15.942;2023-12-07T05:54:43;-1.70;99.90
24412;DHT22;12544;46.760;15.942;2023-12-07T05:57:12;-1.70;99.90
24412;DHT22;12544;46.760;15.942;2023-12-07T05:59:38;-1.80;99.90
24412;DHT22;12544;46.760;15.942;2023-12-07T06:02:04;-1.80;99.90
24412;DHT22;12544;46.760;15.942;2023-12-07T06:04:30;-1.80;99.90
24412;DHT22;12544;46.760;15.942;2023-12-07T06:06:56;-1.80;99.90
24412;DHT22;12544;46.760;15.942;2023-12-07T06:09:21;-1.70;99.90
24412;DHT22;12544;46.760;15.942;2023-12-07T06:11:48;-1.80;99.90
24412;DHT22;12544;46.760;15.942;2023-12-07T06:14:13;-1.90;99.90
24412;DHT22;12544;46.760;15.942;2023-12-07T06:16:39;-1.90;99.90
24412;DHT22;12544;46.760;15.942;2023-12-07T06:19:05;-1.90;99.90
24412;DHT22;12544;46.760;15.942;2023-12-07T06:21:30;-2.00;99.90
24412;DHT22;12544;46.760;15.942;2023-12-07T06:23:57;-2.00;99.90
24412;DHT22;12544;46.760;15.942;2023-12-07T06:26:24;-1.90;99.90
24412;DHT22;12544;46.760;15.942;2023-12-07T06:28:50;-1.90;99.90
24412;DHT22;12544;46.760;15.942;2023-12-07T06:31:15;-1.80;99.90
24412;DHT22;12544;46.760;15.942;2023-12-07T06:33:45;-1.90;99.90
24412;DHT22;12544;46.760;15.942;2023-12-07T06:36:11;-1.90;99.90
24412;DHT22;12544;46.760;15.942;2023-12-07T06:38:42;-1.90;99.90
24412;DHT22;12544;46.760;15.942;2023-12-07T06:41:08;-1.80;99.90
24412;DHT22;12544;46.760;15.942;2023-12-07T06:43:34;-1.80;99.90
24412;DHT22;12544;46.760;15.942;2023-12-07T06:45:59;-1.90;99.90
24412;DHT22;12544;46.760;15.942;2023-12-07T06:48:25;-1.90;99.90
24412;DHT22;12544;46.760;15.942;2023-12-07T06:50:50;-1.90;99.90
24412;DHT22;12544;46.760;15.942;2023-12-07T06:53:16;-2.10;99.90
24412;DHT22;12544;46.760;15.942;2023-12-07T06:55:44;-2.20;99.90
24412;DHT22;12544;46.760;15.942;2023-12-07T06:58:09;-2.20;99.90
24412;DHT22;12544;46.760;15.942;2023-12-07T07:00:35;-2.20;99.90
24412;DHT22;12544;46.760;15.942;2023-12-07T07:03:01;-2.20;99.90
24412;DHT22;12544;46.760;15.942;2023-12-07T07:05:27;-2.20;99.90
24412;DHT22;12544;46.760;15.942;2023-12-07T07:07:53;-2.20;99.90
24412;DHT22;12544;46.760;15.942;2023-12-07T07:10:21;-2.30;99.90
24412;DHT22;12544;46.760;15.942;2023-12-07T07:12:46;-2.30;99.90
24412;DHT22;12544;46.760;15.942;2023-12-07T07:15:12;-2.30;99.90
24412;DHT22;12544;46.760;15.942;2023-12-07T07:17:38;-2.30;99.90
24412;DHT22;12544;46.760;15.942;2023-12-07T07:20:04;-2.30;99.90
24412;DHT22;12544;46.760;15.942;2023-12-07T07:22:30;-2.20;99.90
24412;DHT22;12544;46.760;15.942;2023-12-07T07:24:55;-2.10;99.90
24412;DHT22;12544;46.760;15.942;2023-12-07T07:27:21;-1.90;99.90
24412;DHT22;12544;46.760;15.942;2023-12-07T07:29:47;-1.80;99.90
24412;DHT22;12544;46.760;15.942;2023-12-07T07:32:12;-1.80;99.90
24412;DHT22;12544;46.760;15.942;2023-12-07T07:34:38;-1.80;99.90
24412;DHT22;12544;46.760;15.942;2023-12-07T07:37:05;-1.80;99.90
24412;DHT22;12544;46.760;15.942;2023-12-07T07:39:32;-1.60;99.90
24412;DHT22;12544;46.760;15.942;2023-12-07T07:41:58;-1.40;99.90
24412;DHT22;12544;46.760;15.942;2023-12-07T07:44:23;-1.20;99.90
24412;DHT22;12544;46.760;15.942;2023-12-07T07:46:49;-1.00;99.90
24412;DHT22;12544;46.760;15.942;2023-12-07T07:49:14;-1.00;99.90
24412;DHT22;12544;46.760;15.942;2023-12-07T07:51:40;-1.00;99.90
24412;DHT22;12544;46.760;15.942;2023-12-07T07:54:06;-1.00;99.90
24412;DHT22;12544;46.760;15.942;2023-12-07T07:56:31;-0.80;99.90
24412;DHT22;12544;46.760;15.942;2023-12-07T07:58:57;-0.60;99.90
24412;DHT22;12544;46.760;15.942;2023-12-07T08:01:26;-0.50;99.90
24412;DHT22;12544;46.760;15.942;2023-12-07T08:03:51;-0.40;99.90
24412;DHT22;12544;46.760;15.942;2023-12-07T08:06:17;-0.40;99.90
24412;DHT22;12544;46.760;15.942;2023-12-07T08:08:44;-0.30;99.90
24412;DHT22;12544;46.760;15.942;2023-12-07T08:11:09;-0.40;99.90
24412;DHT22;12544;46.760;15.942;2023-12-07T08:13:35;-0.30;99.90
24412;DHT22;12544;46.760;15.942;2023-12-07T08:16:01;-0.20;99.90
24412;DHT22;12544;46.760;15.942;2023-12-07T08:18:26;-0.10;99.90
24412;DHT22;12544;46.760;15.942;2023-12-07T08:20:52;0.00;99.90
24412;DHT22;12544;46.760;15.942;2023-12-07T08:23:18;0.20;99.90
24412;DHT22;12544;46.760;15.942;2023-12-07T08:25:44;0.20;99.90
24412;DHT22;12544;46.760;15.942;2023-12-07T08:28:10;0.20;99.90
24412;DHT22;12544;46.760;15.942;2023-12-07T08:30:36;0.20;99.90
24412;DHT22;12544;46.760;15.942;2023-12-07T08:33:02;0.20;99.90
24412;DHT22;12544;46.760;15.942;2023-12-07T08:35:27;0.30;99.90
24412;DHT22;12544;46.760;15.942;2023-12-07T08:37:53;0.50;99.90
24412;DHT22;12544;46.760;15.942;2023-12-07T08:40:18;0.60;99.90
24412;DHT22;12544;46.760;15.942;2023-12-07T08:42:45;0.70;99.90
24412;DHT22;12544;46.760;15.942;2023-12-07T08:45:11;0.80;99.90
24412;DHT22;12544;46.760;15.942;2023-12-07T08:47:39;0.80;99.90
24412;DHT22;12544;46.760;15.942;2023-12-07T08:50:05;0.80;99.90
24412;DHT22;12544;46.760;15.942;2023-12-07T08:52:33;0.90;99.90
24412;DHT22;12544;46.760;15.942;2023-12-07T08:54:59;1.00;99.90
24412;DHT22;12544;46.760;15.942;2023-12-07T08:57:25;1.10;99.90
24412;DHT22;12544;46.760;15.942;2023-12-07T08:59:50;1.20;99.90
24412;DHT22;12544;46.760;15.942;2023-12-07T09:02:16;1.30;99.90
24412;DHT22;12544;46.760;15.942;2023-12-07T09:04:41;1.40;99.90
24412;DHT22;12544;46.760;15.942;2023-12-07T09:07:07;1.70;99.90
24412;DHT22;12544;46.760;15.942;2023-12-07T09:09:34;1.80;99.90
24412;DHT22;12544;46.760;15.942;2023-12-07T09:12:00;2.10;99.90
24412;DHT22;12544;46.760;15.942;2023-12-07T09:14:26;2.30;99.90
24412;DHT22;12544;46.760;15.942;2023-12-07T09:16:52;2.50;99.90
24412;DHT22;12544;46.760;15.942;2023-12-07T09:19:17;2.70;99.90
24412;DHT22;12544;46.760;15.942;2023-12-07T09:21:43;2.90;99.90
24412;DHT22;12544;46.760;15.942;2023-12-07T09:24:09;3.00;99.90
24412;DHT22;12544;46.760;15.942;2023-12-07T09:26:35;3.10;99.90
24412;DHT22;12544;46.760;15.942;2023-12-07T09:29:01;3.20;99.90
24412;DHT22;12544;46.760;15.942;2023-12-07T09:31:28;3.40;99.90
24412;DHT22;12544;46.760;15.942;2023-12-07T09:33:53;3.50;99.90
24412;DHT22;12544;46.760;15.942;2023-12-07T09:36:19;3.70;99.90
24412;DHT22;12544;46.760;15.942;2023-12-07T09:38:46;3.90;99.90
24412;DHT22;12544;46.760;15.942;2023-12-07T09:41:12;4.00;99.90
24412;DHT22;12544;46.760;15.942;2023-12-07T09:43:38;4.10;99.90
24412;DHT22;12544;46.760;15.942;2023-12-07T09:46:05;4.10;99.90
24412;DHT22;12544;46.760;15.942;2023-12-07T09:48:31;4.10;99.90
24412;DHT22;12544;46.760;15.942;2023-12-07T09:50:59;4.10;99.90
24412;DHT22;12544;46.760;15.942;2023-12-07T09:53:27;4.30;99.90
24412;DHT22;12544;46.760;15.942;2023-12-07T09:55:54;4.50;99.90
24412;DHT22;12544;46.760;15.942;2023-12-07T09:58:20;4.70;99.90
24412;DHT22;12544;46.760;15.942;2023-12-07T10:00:47;4.90;99.90
24412;DHT22;12544;46.760;15.942;2023-12-07T10:03:23;5.20;99.90
24412;DHT22;12544;46.760;15.942;2023-12-07T10:06:06;5.30;99.90
24412;DHT22;12544;46.760;15.942;2023-12-07T10:12:08;5.40;99.90
24412;DHT22;12544;46.760;15.942;2023-12-07T10:14:34;5.50;99.90
24412;DHT22;12544;46.760;15.942;2023-12-07T10:17:00;5.70;99.90
24412;DHT22;12544;46.760;15.942;2023-12-07T10:19:26;6.00;99.90
24412;DHT22;12544;46.760;15.942;2023-12-07T10:21:53;6.10;99.90
24412;DHT22;12544;46.760;15.942;2023-12-07T10:24:22;6.20;99.90
24412;DHT22;12544;46.760;15.942;2023-12-07T10:26:52;6.40;99.90
24412;DHT22;12544;46.760;15.942;2023-12-07T10:29:18;6.70;99.90
24412;DHT22;12544;46.760;15.942;2023-12-07T10:31:45;6.90;99.90
24412;DHT22;12544;46.760;15.942;2023-12-07T10:34:12;7.00;99.90
24412;DHT22;12544;46.760;15.942;2023-12-07T10:36:38;6.90;99.90
24412;DHT22;12544;46.760;15.942;2023-12-07T10:39:04;7.00;99.90
24412;DHT22;12544;46.760;15.942;2023-12-07T10:41:34;7.10;99.90
24412;DHT22;12544;46.760;15.942;2023-12-07T10:47:23;7.30;99.90
24412;DHT22;12544;46.760;15.942;2023-12-07T10:49:52;7.40;99.90
24412;DHT22;12544;46.760;15.942;2023-12-07T10:52:24;7.40;99.90
24412;DHT22;12544;46.760;15.942;2023-12-07T10:55:02;7.50;99.90
24412;DHT22;12544;46.760;15.942;2023-12-07T10:57:32;7.50;99.90
24412;DHT22;12544;46.760;15.942;2023-12-07T11:00:00;7.60;99.90
24412;DHT22;12544;46.760;15.942;2023-12-07T11:02:27;7.70;99.90
24412;DHT22;12544;46.760;15.942;2023-12-07T11:04:56;7.70;99.90
24412;DHT22;12544;46.760;15.942;2023-12-07T11:07:25;7.80;99.90
24412;DHT22;12544;46.760;15.942;2023-12-07T11:10:02;7.90;99.90
24412;DHT22;12544;46.760;15.942;2023-12-07T11:12:45;7.80;99.90
24412;DHT22;12544;46.760;15.942;2023-12-07T11:15:14;8.20;99.90
24412;DHT22;12544;46.760;15.942;2023-12-07T11:17:50;8.60;99.90
24412;DHT22;12544;46.760;15.942;2023-12-07T11:20:19;8.90;99.90
24412;DHT22;12544;46.760;15.942;2023-12-07T11:26:08;9.40;99.90
24412;DHT22;12544;46.760;15.942;2023-12-07T11:28:38;9.50;99.90
24412;DHT22;12544;46.760;15.942;2023-12-07T11:31:06;9.30;99.90
24412;DHT22;12544;46.760;15.942;2023-12-07T11:33:32;9.10;99.90
24412;DHT22;12544;46.760;15.942;2023-12-07T11:36:06;9.10;99.90
24412;DHT22;12544;46.760;15.942;2023-12-07T11:38:33;9.50;99.90
24412;DHT22;12544;46.760;15.942;2023-12-07T11:40:59;9.70;99.90
24412;DHT22;12544;46.760;15.942;2023-12-07T11:46:07;9.90;99.90
24412;DHT22;12544;46.760;15.942;2023-12-07T11:48:32;10.10;99.90
24412;DHT22;12544;46.760;15.942;2023-12-07T11:51:06;10.30;99.90
24412;DHT22;12544;46.760;15.942;2023-12-07T11:53:37;10.10;99.90
24412;DHT22;12544;46.760;15.942;2023-12-07T11:56:05;10.10;99.90
24412;DHT22;12544;46.760;15.942;2023-12-07T11:58:32;9.90;99.90
24412;DHT22;12544;46.760;15.942;2023-12-07T12:00:58;9.70;99.90
24412;DHT22;12544;46.760;15.942;2023-12-07T12:03:24;9.60;99.90
24412;DHT22;12544;46.760;15.942;2023-12-07T12:05:50;9.60;99.90
24412;DHT22;12544;46.760;15.942;2023-12-07T12:08:19;9.60;99.90
24412;DHT22;12544;46.760;15.942;2023-12-07T12:10:46;9.60;99.90
24412;DHT22;12544;46.760;15.942;2023-12-07T12:13:12;9.70;99.90
24412;DHT22;12544;46.760;15.942;2023-12-07T12:15:39;10.10;99.90
24412;DHT22;12544;46.760;15.942;2023-12-07T12:18:05;10.10;99.90
24412;DHT22;12544;46.760;15.942;2023-12-07T12:20:31;10.00;99.90
24412;DHT22;12544;46.760;15.942;2023-12-07T12:22:58;10.10;99.90
24412;DHT22;12544;46.760;15.942;2023-12-07T12:25:26;10.10;99.90
24412;DHT22;12544;46.760;15.942;2023-12-07T12:27:54;10.10;99.90
24412;DHT22;12544;46.760;15.942;2023-12-07T12:30:21;10.30;99.90
24412;DHT22;12544;46.760;15.942;2023-12-07T12:32:48;10.10;99.90
24412;DHT22;12544;46.760;15.942;2023-12-07T12:35:14;9.90;99.90
24412;DHT22;12544;46.760;15.942;2023-12-07T12:37:44;9.70;99.90
24412;DHT22;12544;46.760;15.942;2023-12-07T12:40:17;9.90;99.90
24412;DHT22;12544;46.760;15.942;2023-12-07T12:42:49;10.30;99.90
24412;DHT22;12544;46.760;15.942;2023-12-07T12:45:15;10.60;99.90
24412;DHT22;12544;46.760;15.942;2023-12-07T12:47:42;10.90;99.90
24412;DHT22;12544;46.760;15.942;2023-12-07T12:50:09;11.00;99.90
24412;DHT22;12544;46.760;15.942;2023-12-07T12:52:35;11.00;99.90
24412;DHT22;12544;46.760;15.942;2023-12-07T12:55:02;10.90;99.90
24412;DHT22;12544;46.760;15.942;2023-12-07T12:57:32;10.90;99.90
24412;DHT22;12544;46.760;15.942;2023-12-07T13:00:00;10.90;99.90
24412;DHT22;12544;46.760;15.942;2023-12-07T13:02:27;10.90;99.90
24412;DHT22;12544;46.760;15.942;2023-12-07T13:04:52;10.90;99.90
24412;DHT22;12544;46.760;15.942;2023-12-07T13:07:19;11.00;99.90
24412;DHT22;12544;46.760;15.942;2023-12-07T13:09:45;11.10;99.90
24412;DHT22;12544;46.760;15.942;2023-12-07T13:12:12;11.30;99.90
24412;DHT22;12544;46.760;15.942;2023-12-07T13:14:39;11.40;99.90
24412;DHT22;12544;46.760;15.942;2023-12-07T13:17:05;11.50;99.90
24412;DHT22;12544;46.760;15.942;2023-12-07T13:19:33;11.50;99.90
24412;DHT22;12544;46.760;15.942;2023-12-07T13:21:59;11.40;99.90
24412;DHT22;12544;46.760;15.942;2023-12-07T13:24:24;11.30;99.90
24412;DHT22;12544;46.760;15.942;2023-12-07T13:26:50;11.10;99.90
24412;DHT22;12544;46.760;15.942;2023-12-07T13:29:16;10.90;99.90
24412;DHT22;12544;46.760;15.942;2023-12-07T13:31:42;10.70;99.90
24412;DHT22;12544;46.760;15.942;2023-12-07T13:34:08;10.60;99.90
24412;DHT22;12544;46.760;15.942;2023-12-07T13:36:33;10.50;99.90
24412;DHT22;12544;46.760;15.942;2023-12-07T13:39:01;10.60;99.90
24412;DHT22;12544;46.760;15.942;2023-12-07T13:41:29;10.90;99.90
24412;DHT22;12544;46.760;15.942;2023-12-07T13:43:55;11.10;99.90
24412;DHT22;12544;46.760;15.942;2023-12-07T13:46:21;11.30;99.90
24412;DHT22;12544;46.760;15.942;2023-12-07T13:48:47;11.50;99.90
24412;DHT22;12544;46.760;15.942;2023-12-07T13:51:13;11.70;99.90
24412;DHT22;12544;46.760;15.942;2023-12-07T13:53:39;11.80;99.90
24412;DHT22;12544;46.760;15.942;2023-12-07T13:56:05;11.80;99.90
24412;DHT22;12544;46.760;15.942;2023-12-07T13:58:33;11.80;99.90
24412;DHT22;12544;46.760;15.942;2023-12-07T14:01:00;11.80;99.90
24412;DHT22;12544;46.760;15.942;2023-12-07T14:03:27;11.70;99.90
24412;DHT22;12544;46.760;15.942;2023-12-07T14:05:52;11.60;99.90
24412;DHT22;12544;46.760;15.942;2023-12-07T14:08:18;11.40;99.90
24412;DHT22;12544;46.760;15.942;2023-12-07T14:10:44;11.40;99.90
24412;DHT22;12544;46.760;15.942;2023-12-07T14:13:10;11.40;99.90
24412;DHT22;12544;46.760;15.942;2023-12-07T14:15:36;11.40;99.90
24412;DHT22;12544;46.760;15.942;2023-12-07T14:21:24;10.90;99.90
24412;DHT22;12544;46.760;15.942;2023-12-07T14:23:50;10.70;99.90
24412;DHT22;12544;46.760;15.942;2023-12-07T14:26:18;10.50;99.90
24412;DHT22;12544;46.760;15.942;2023-12-07T14:28:43;10.40;99.90
24412;DHT22;12544;46.760;15.942;2023-12-07T14:31:09;10.30;99.90
24412;DHT22;12544;46.760;15.942;2023-12-07T14:33:42;10.20;99.90
24412;DHT22;12544;46.760;15.942;2023-12-07T14:36:09;10.10;99.90
24412;DHT22;12544;46.760;15.942;2023-12-07T14:38:35;10.00;99.90
24412;DHT22;12544;46.760;15.942;2023-12-07T14:41:01;9.90;99.90
24412;DHT22;12544;46.760;15.942;2023-12-07T14:43:26;9.90;99.90
24412;DHT22;12544;46.760;15.942;2023-12-07T14:45:52;9.80;99.90
24412;DHT22;12544;46.760;15.942;2023-12-07T14:48:18;9.60;99.90
24412;DHT22;12544;46.760;15.942;2023-12-07T14:50:43;9.30;99.90
24412;DHT22;12544;46.760;15.942;2023-12-07T14:53:09;9.00;99.90
24412;DHT22;12544;46.760;15.942;2023-12-07T14:55:36;8.80;99.90
24412;DHT22;12544;46.760;15.942;2023-12-07T14:58:01;8.50;99.90
24412;DHT22;12544;46.760;15.942;2023-12-07T15:00:27;8.10;99.90
24412;DHT22;12544;46.760;15.942;2023-12-07T15:02:54;7.80;99.90
24412;DHT22;12544;46.760;15.942;2023-12-07T15:05:19;7.50;99.90
24412;DHT22;12544;46.760;15.942;2023-12-07T15:07:45;7.10;99.90
24412;DHT22;12544;46.760;15.942;2023-12-07T15:10:11;6.80;99.90
24412;DHT22;12544;46.760;15.942;2023-12-07T15:12:36;6.50;99.90
24412;DHT22;12544;46.760;15.942;2023-12-07T15:15:02;6.30;99.90
24412;DHT22;12544;46.760;15.942;2023-12-07T15:17:31;6.00;99.90
24412;DHT22;12544;46.760;15.942;2023-12-07T15:19:57;5.80;99.90
24412;DHT22;12544;46.760;15.942;2023-12-07T15:22:23;5.70;99.90
24412;DHT22;12544;46.760;15.942;2023-12-07T15:24:48;5.50;99.90
24412;DHT22;12544;46.760;15.942;2023-12-07T15:27:14;5.30;99.90
24412;DHT22;12544;46.760;15.942;2023-12-07T15:29:39;5.20;99.90
24412;DHT22;12544;46.760;15.942;2023-12-07T15:32:06;4.90;99.90
24412;DHT22;12544;46.760;15.942;2023-12-07T15:34:32;4.70;99.90
24412;DHT22;12544;46.760;15.942;2023-12-07T15:36:58;4.60;99.90
24412;DHT22;12544;46.760;15.942;2023-12-07T15:39:24;4.40;99.90
24412;DHT22;12544;46.760;15.942;2023-12-07T15:41:49;4.40;99.90
24412;DHT22;12544;46.760;15.942;2023-12-07T15:44:15;4.40;99.90
24412;DHT22;12544;46.760;15.942;2023-12-07T15:46:40;4.30;99.90
24412;DHT22;12544;46.760;15.942;2023-12-07T15:49:06;4.20;99.90
24412;DHT22;12544;46.760;15.942;2023-12-07T15:51:32;4.10;99.90
24412;DHT22;12544;46.760;15.942;2023-12-07T15:53:57;3.80;99.90
24412;DHT22;12544;46.760;15.942;2023-12-07T15:56:23;3.70;99.90
24412;DHT22;12544;46.760;15.942;2023-12-07T15:58:48;3.50;99.90
24412;DHT22;12544;46.760;15.942;2023-12-07T16:01:14;3.40;99.90